Time;durP1;ratioP1;P1;durP2;ratioP2;P2;SDS_P1;SDS_P2;PMS_P1;PMS_P2;Temp;Humidity;BMP_temperature;BMP_pressure;BME280_temperature;BME280_humidity;BME280_pressure;Samples;Min_cycle;Max_cycle;Signal;HPM_P1;HPM_P2
2023/06/11 00:01:24;;;;;;;11.30;6.57;;;16.50;99.90;;;;;;5054866;28;20218;-85
2023/06/11 00:03:52;;;;;;;11.20;6.07;;;16.50;99.90;;;;;;5055212;28;20190;-86
2023/06/11 00:06:22;;;;;;;12.53;6.20;;;16.50;99.90;;;;;;5055213;28;20375;-86
2023/06/11 00:08:51;;;;;;;10.13;6.10;;;16.40;99.90;;;;;;5054911;28;20194;-85
2023/06/11 00:11:18;;;;;;;10.17;6.10;;;16.40;99.90;;;;;;5073042;28;20229;-86
2023/06/11 00:13:46;;;;;;;8.57;5.87;;;16.30;99.90;;;;;;5072123;28;20202;-87
2023/06/11 00:16:13;;;;;;;8.87;5.53;;;16.30;99.90;;;;;;5055630;28;20321;-87
2023/06/11 00:18:42;;;;;;;11.03;5.60;;;16.20;99.90;;;;;;5056147;28;20240;-87
2023/06/11 00:21:12;;;;;;;9.87;5.70;;;16.10;99.90;;;;;;5072253;28;20240;-87
2023/06/11 00:23:39;;;;;;;7.70;5.43;;;16.00;99.90;;;;;;5073931;28;20198;-87
2023/06/11 00:26:10;;;;;;;7.87;5.33;;;16.00;99.90;;;;;;5073401;28;20218;-89
2023/06/11 00:28:37;;;;;;;8.50;5.33;;;16.00;99.90;;;;;;5055414;28;20645;-88
2023/06/11 00:31:04;;;;;;;10.73;5.83;;;16.00;99.90;;;;;;5055298;28;20214;-88
2023/06/11 00:33:31;;;;;;;10.60;5.30;;;16.00;99.90;;;;;;5073123;28;20240;-89
2023/06/11 00:35:58;;;;;;;10.97;5.00;;;15.90;99.90;;;;;;5054980;28;20210;-88
2023/06/11 00:38:25;;;;;;;8.80;5.37;;;15.90;99.90;;;;;;5071531;28;20202;-88
2023/06/11 00:40:52;;;;;;;9.33;5.23;;;15.80;99.90;;;;;;5038278;28;20230;-87
2023/06/11 00:43:21;;;;;;;7.90;5.00;;;15.80;99.90;;;;;;5038017;28;20601;-86
2023/06/11 00:45:50;;;;;;;12.07;5.40;;;15.80;99.90;;;;;;5037806;28;20314;-86
2023/06/11 00:48:21;;;;;;;12.63;5.17;;;15.80;99.90;;;;;;5072898;28;20186;-87
2023/06/11 00:50:49;;;;;;;8.17;5.07;;;15.70;99.90;;;;;;5072624;28;20222;-87
2023/06/11 00:53:18;;;;;;;10.30;5.03;;;15.70;99.90;;;;;;5058895;28;20194;-85
2023/06/11 00:55:46;;;;;;;7.70;4.77;;;15.60;99.90;;;;;;5058260;28;20309;-87
2023/06/11 00:58:14;;;;;;;8.40;4.60;;;15.60;99.90;;;;;;5076295;28;20672;-88
2023/06/11 01:00:46;;;;;;;9.50;4.63;;;15.60;99.90;;;;;;5074220;28;20218;-90
2023/06/11 01:03:17;;;;;;;7.43;4.40;;;15.50;99.90;;;;;;5041673;28;20232;-88
2023/06/11 01:06:17;;;;;;;9.57;4.90;;;15.50;99.90;;;;;;5075133;28;20216;-86
2023/06/11 01:08:52;;;;;;;8.20;4.60;;;15.50;99.90;;;;;;5075925;28;20252;-88
2023/06/11 01:11:23;;;;;;;8.03;4.43;;;15.40;99.90;;;;;;5076823;28;20586;-87
2023/06/11 01:13:51;;;;;;;8.87;4.60;;;15.40;99.90;;;;;;5058286;28;20187;-88
2023/06/11 01:16:37;;;;;;;8.27;4.40;;;15.30;99.90;;;;;;5041656;28;20779;-85
2023/06/11 01:19:31;;;;;;;6.80;4.40;;;15.30;99.90;;;;;;5058573;28;20197;-84
2023/06/11 01:22:05;;;;;;;7.40;4.50;;;15.30;99.90;;;;;;5058568;28;20233;-86
2023/06/11 01:24:59;;;;;;;5.30;4.10;;;15.30;99.90;;;;;;5059849;28;20218;-86
2023/06/11 01:27:53;;;;;;;9.33;4.33;;;15.20;99.90;;;;;;5062925;28;20202;-89
2023/06/11 01:30:21;;;;;;;7.13;4.20;;;15.20;99.90;;;;;;5063587;28;20289;-88
2023/06/11 01:32:53;;;;;;;7.00;4.00;;;15.20;99.90;;;;;;5062401;28;20206;-89
2023/06/11 01:35:20;;;;;;;8.10;4.10;;;15.10;99.90;;;;;;5076294;28;20273;-84
2023/06/11 01:37:55;;;;;;;7.40;4.10;;;15.10;99.90;;;;;;5096925;28;20201;-83
2023/06/11 01:40:28;;;;;;;7.67;3.70;;;15.10;99.90;;;;;;5077958;28;20294;-84
2023/06/11 01:42:56;;;;;;;6.60;4.27;;;15.00;99.90;;;;;;5060933;28;20186;-81
2023/06/11 01:45:23;;;;;;;7.13;3.83;;;14.90;99.90;;;;;;5058507;28;20264;-85
2023/06/11 01:47:51;;;;;;;6.27;3.63;;;14.80;99.90;;;;;;5076601;28;20216;-86
2023/06/11 01:50:19;;;;;;;6.07;3.50;;;14.80;99.90;;;;;;5058978;28;20220;-87
2023/06/11 01:52:46;;;;;;;8.10;3.57;;;14.70;99.90;;;;;;5076201;28;20224;-86
2023/06/11 01:55:13;;;;;;;5.53;3.33;;;14.70;99.90;;;;;;5076576;28;20207;-86
2023/06/11 01:57:41;;;;;;;6.10;3.23;;;14.70;99.90;;;;;;5076911;28;20213;-86
2023/06/11 02:00:10;;;;;;;7.00;3.10;;;14.60;99.90;;;;;;5076248;28;20218;-87
2023/06/11 02:02:39;;;;;;;7.33;3.33;;;14.60;99.90;;;;;;5040383;28;20289;-86
2023/06/11 02:05:07;;;;;;;7.17;3.53;;;14.60;99.90;;;;;;5075440;28;20309;-86
2023/06/11 02:07:35;;;;;;;4.87;3.23;;;14.60;99.90;;;;;;5057184;28;20202;-85
2023/06/11 02:10:02;;;;;;;8.70;3.50;;;14.60;99.90;;;;;;5057018;28;20272;-87
2023/06/11 02:12:30;;;;;;;5.23;3.17;;;14.60;99.90;;;;;;5074804;28;20251;-88
2023/06/11 02:14:57;;;;;;;8.47;3.13;;;14.60;99.90;;;;;;5056566;28;20245;-86
2023/06/11 02:17:25;;;;;;;8.13;3.30;;;14.50;99.90;;;;;;5056851;28;20601;-86
2023/06/11 02:19:52;;;;;;;5.37;3.20;;;14.50;99.90;;;;;;5056317;28;20656;-84
2023/06/11 02:22:19;;;;;;;7.93;3.67;;;14.50;99.90;;;;;;5056397;28;20251;-85
2023/06/11 02:24:46;;;;;;;6.10;3.17;;;14.40;99.90;;;;;;5056348;28;20222;-85
2023/06/11 02:27:13;;;;;;;5.57;3.10;;;14.40;99.90;;;;;;5056298;28;20227;-86
2023/06/11 02:29:40;;;;;;;6.00;3.03;;;14.40;99.90;;;;;;5075679;28;20241;-84
2023/06/11 02:32:07;;;;;;;5.97;2.83;;;14.40;99.90;;;;;;5057987;28;20244;-84
2023/06/11 02:34:34;;;;;;;6.63;3.07;;;14.40;99.90;;;;;;5039935;28;20580;-85
2023/06/11 02:37:01;;;;;;;6.33;2.90;;;14.40;99.90;;;;;;5056703;28;20285;-85
2023/06/11 02:39:29;;;;;;;5.10;2.93;;;14.40;99.90;;;;;;5055921;28;20318;-84
2023/06/11 02:41:57;;;;;;;3.93;2.70;;;14.40;99.90;;;;;;5074564;28;20299;-85
2023/06/11 02:44:24;;;;;;;5.53;2.97;;;14.40;99.90;;;;;;5056938;28;20194;-86
2023/06/11 02:46:51;;;;;;;5.70;3.00;;;14.30;99.90;;;;;;5056859;28;20208;-86
2023/06/11 02:49:18;;;;;;;4.53;2.80;;;14.30;99.90;;;;;;5039508;28;20236;-85
2023/06/11 02:51:45;;;;;;;4.77;3.10;;;14.30;99.90;;;;;;5056470;28;20206;-85
2023/06/11 02:54:12;;;;;;;4.57;3.20;;;14.30;99.90;;;;;;5056222;28;20190;-85
2023/06/11 02:56:39;;;;;;;8.87;3.00;;;14.30;99.90;;;;;;5056088;28;20194;-85
2023/06/11 02:59:06;;;;;;;5.73;3.07;;;14.30;99.90;;;;;;5074414;28;20707;-85
2023/06/11 03:01:33;;;;;;;4.80;2.60;;;14.30;99.90;;;;;;5074189;28;20202;-84
2023/06/11 03:04:00;;;;;;;4.60;2.90;;;14.30;99.90;;;;;;5056133;28;20194;-85
2023/06/11 03:06:27;;;;;;;4.57;2.80;;;14.30;99.90;;;;;;5056208;28;20221;-85
2023/06/11 03:08:54;;;;;;;6.00;2.67;;;14.30;99.90;;;;;;5074411;28;20269;-86
2023/06/11 03:11:21;;;;;;;4.23;2.97;;;14.30;99.90;;;;;;5055777;28;20685;-86
2023/06/11 03:13:48;;;;;;;6.20;2.97;;;14.30;99.90;;;;;;5055789;28;20225;-86
2023/06/11 03:16:15;;;;;;;5.23;3.17;;;14.30;99.90;;;;;;5073901;28;20234;-85
2023/06/11 03:18:43;;;;;;;4.90;2.80;;;14.40;99.90;;;;;;5055615;28;20194;-86
2023/06/11 03:21:11;;;;;;;10.63;2.90;;;14.30;99.90;;;;;;5072884;28;20221;-87
2023/06/11 03:23:38;;;;;;;9.70;2.87;;;14.30;99.90;;;;;;5072854;28;20300;-85
2023/06/11 03:26:05;;;;;;;5.57;2.87;;;14.30;99.90;;;;;;5074267;28;20281;-87
2023/06/11 03:28:32;;;;;;;6.47;2.90;;;14.30;99.90;;;;;;5039834;28;20256;-87
2023/06/11 03:30:59;;;;;;;6.07;2.83;;;14.30;99.90;;;;;;5055696;28;20573;-86
2023/06/11 03:33:26;;;;;;;5.93;2.80;;;14.40;99.90;;;;;;5055790;28;20594;-85
2023/06/11 03:35:53;;;;;;;8.63;2.87;;;14.30;99.90;;;;;;5073712;28;20769;-83
2023/06/11 03:38:20;;;;;;;5.57;3.00;;;14.30;99.90;;;;;;5057207;28;20214;-87
2023/06/11 03:40:47;;;;;;;8.03;3.23;;;14.30;99.90;;;;;;5055541;28;20316;-85
2023/06/11 03:43:14;;;;;;;4.93;2.90;;;14.30;99.90;;;;;;5038855;28;20233;-84
2023/06/11 03:45:41;;;;;;;7.17;2.70;;;14.30;99.90;;;;;;5073306;28;20262;-84
2023/06/11 03:48:08;;;;;;;4.83;2.87;;;14.40;99.90;;;;;;5055193;28;20254;-85
2023/06/11 03:50:35;;;;;;;7.63;2.93;;;14.40;99.90;;;;;;5072933;28;20219;-86
2023/06/11 03:53:03;;;;;;;7.10;2.93;;;14.40;99.90;;;;;;5055233;28;20198;-85
2023/06/11 03:55:29;;;;;;;3.80;2.60;;;14.40;99.90;;;;;;5038548;28;20214;-83
2023/06/11 03:57:56;;;;;;;3.53;2.80;;;14.50;99.90;;;;;;5058104;28;20202;-84
2023/06/11 04:00:25;;;;;;;6.23;2.70;;;14.60;99.90;;;;;;5055295;28;20256;-84
2023/06/11 04:02:53;;;;;;;5.47;2.87;;;14.60;99.90;;;;;;5074388;28;20225;-83
2023/06/11 04:05:24;;;;;;;6.67;2.83;;;14.60;99.90;;;;;;5058914;28;20278;-84
2023/06/11 04:07:51;;;;;;;4.73;2.70;;;14.70;99.90;;;;;;5073697;28;20214;-86
2023/06/11 04:10:18;;;;;;;6.73;3.27;;;14.70;99.90;;;;;;5038776;28;20238;-86
2023/06/11 04:12:47;;;;;;;5.63;3.10;;;14.70;99.90;;;;;;5073242;28;20562;-86
2023/06/11 04:15:15;;;;;;;9.50;3.03;;;14.70;99.90;;;;;;5073386;28;20236;-86
2023/06/11 04:17:42;;;;;;;5.10;2.90;;;14.70;99.90;;;;;;5056250;28;20202;-86
2023/06/11 04:20:09;;;;;;;7.87;3.40;;;14.80;99.90;;;;;;5073475;28;20202;-86
2023/06/11 04:22:36;;;;;;;4.67;3.10;;;14.80;99.90;;;;;;5073239;28;20198;-87
2023/06/11 04:25:04;;;;;;;14.53;3.43;;;14.80;99.90;;;;;;5054796;28;20305;-86
2023/06/11 04:27:33;;;;;;;9.87;3.30;;;14.90;99.90;;;;;;5055006;28;20281;-87
2023/06/11 04:30:01;;;;;;;6.40;2.93;;;14.90;99.90;;;;;;5055137;28;20295;-87
2023/06/11 04:32:34;;;;;;;10.33;3.50;;;15.00;99.90;;;;;;5073379;28;20711;-87
2023/06/11 04:35:02;;;;;;;4.50;2.93;;;15.00;99.90;;;;;;5072701;28;20850;-87
2023/06/11 04:37:38;;;;;;;5.57;3.00;;;15.10;99.90;;;;;;5072797;28;20611;-87
2023/06/11 04:40:09;;;;;;;5.00;3.00;;;15.10;99.90;;;;;;5073550;28;20210;-85
2023/06/11 04:42:40;;;;;;;6.60;2.83;;;15.20;99.90;;;;;;5054274;28;20190;-75
2023/06/11 04:45:09;;;;;;;6.93;2.80;;;15.20;99.90;;;;;;5070619;28;20329;-75
2023/06/11 04:47:37;;;;;;;5.07;2.70;;;15.30;99.90;;;;;;5072147;28;20223;-75
2023/06/11 04:50:06;;;;;;;4.00;2.60;;;15.30;99.90;;;;;;5054083;28;20245;-75
2023/06/11 04:52:43;;;;;;;3.90;2.80;;;15.30;99.90;;;;;;5070580;28;20224;-76
2023/06/11 04:55:12;;;;;;;4.93;2.77;;;15.30;99.90;;;;;;5054053;28;20222;-75
2023/06/11 04:57:39;;;;;;;5.17;2.87;;;15.30;99.90;;;;;;5070520;28;20198;-75
2023/06/11 05:00:07;;;;;;;7.30;2.83;;;15.40;99.90;;;;;;5071782;28;20214;-75
2023/06/11 05:02:37;;;;;;;5.60;2.80;;;15.40;99.90;;;;;;5053688;28;20234;-76
2023/06/11 05:05:05;;;;;;;7.27;3.13;;;15.50;99.90;;;;;;5053739;28;20221;-74
2023/06/11 05:07:32;;;;;;;3.93;2.60;;;15.60;99.90;;;;;;5053631;28;20191;-75
2023/06/11 05:10:00;;;;;;;3.60;2.73;;;15.60;99.90;;;;;;5071883;28;20599;-74
2023/06/11 05:12:27;;;;;;;4.00;2.73;;;15.70;99.90;;;;;;5053577;28;20195;-75
2023/06/11 05:14:54;;;;;;;4.90;2.73;;;15.70;99.90;;;;;;5037142;28;20273;-74
2023/06/11 05:17:21;;;;;;;7.17;2.67;;;15.80;99.90;;;;;;5071916;28;20205;-74
2023/06/11 05:19:48;;;;;;;6.03;2.90;;;15.90;99.90;;;;;;5071636;28;20259;-74
2023/06/11 05:22:15;;;;;;;6.80;2.90;;;16.00;99.90;;;;;;5053465;28;20309;-76
2023/06/11 05:24:42;;;;;;;4.60;2.57;;;16.00;99.90;;;;;;5070437;28;20707;-75
2023/06/11 05:27:09;;;;;;;4.03;2.53;;;16.00;99.90;;;;;;5054343;28;20994;-74
2023/06/11 05:29:37;;;;;;;4.30;2.63;;;16.10;99.90;;;;;;5053558;28;20713;-74
2023/06/11 05:32:05;;;;;;;4.90;2.70;;;16.30;99.90;;;;;;5053636;28;20247;-75
2023/06/11 05:34:33;;;;;;;4.53;2.70;;;16.40;99.90;;;;;;5053824;28;20238;-75
2023/06/11 05:37:01;;;;;;;6.93;3.00;;;16.50;99.90;;;;;;5071969;28;20259;-75
2023/06/11 05:39:28;;;;;;;3.33;2.43;;;16.60;99.90;;;;;;5074989;28;20186;-75
2023/06/11 05:41:55;;;;;;;6.10;2.60;;;16.60;99.90;;;;;;5075187;28;20217;-75
2023/06/11 05:44:22;;;;;;;3.43;2.37;;;16.60;99.90;;;;;;5040344;28;20208;-75
2023/06/11 05:46:48;;;;;;;4.73;2.30;;;16.80;99.90;;;;;;5057477;28;20278;-75
2023/06/11 05:49:16;;;;;;;6.23;2.47;;;16.80;99.90;;;;;;5056740;28;20290;-74
2023/06/11 05:51:43;;;;;;;3.37;2.53;;;16.90;99.90;;;;;;5073795;28;20305;-74
2023/06/11 05:54:09;;;;;;;4.17;2.70;;;17.00;99.90;;;;;;5056837;28;20281;-75
2023/06/11 05:56:37;;;;;;;4.50;2.30;;;17.10;99.90;;;;;;4995918;28;20196;-75
2023/06/11 05:59:05;;;;;;;3.97;2.37;;;17.20;99.90;;;;;;5012571;28;20219;-75
2023/06/11 06:01:33;;;;;;;4.97;2.20;;;17.20;99.90;;;;;;4995943;28;20295;-74
2023/06/11 06:04:00;;;;;;;3.73;2.30;;;17.20;99.90;;;;;;4980073;28;20292;-75
2023/06/11 06:06:28;;;;;;;6.47;2.60;;;17.40;99.90;;;;;;4996196;28;20549;-75
2023/06/11 06:08:55;;;;;;;6.00;2.67;;;17.40;99.90;;;;;;4996128;28;20224;-75
2023/06/11 06:11:22;;;;;;;3.73;2.47;;;17.60;99.90;;;;;;5012248;28;20747;-74
2023/06/11 06:13:49;;;;;;;10.47;3.00;;;17.70;99.90;;;;;;5002813;28;20527;-75
2023/06/11 06:16:16;;;;;;;2.90;1.87;;;17.80;99.90;;;;;;5056223;28;20269;-75
2023/06/11 06:18:44;;;;;;;3.47;2.20;;;17.80;99.90;;;;;;5039970;28;20205;-74
2023/06/11 06:21:11;;;;;;;5.67;2.40;;;17.90;99.90;;;;;;5040051;28;20222;-75
2023/06/11 06:23:40;;;;;;;5.77;2.50;;;17.90;99.90;;;;;;5040152;28;20198;-76
2023/06/11 06:26:07;;;;;;;7.03;2.47;;;18.00;99.90;;;;;;5074301;28;20586;-76
2023/06/11 06:28:35;;;;;;;8.23;2.73;;;18.00;99.90;;;;;;5039496;28;20285;-75
2023/06/11 06:31:02;;;;;;;3.57;2.20;;;18.10;99.90;;;;;;5056116;28;20735;-76
2023/06/11 06:33:34;;;;;;;6.27;2.47;;;18.10;99.90;;;;;;5056352;28;20285;-76
2023/06/11 06:36:02;;;;;;;5.73;2.50;;;18.20;99.90;;;;;;5056064;28;20712;-74
2023/06/11 06:38:31;;;;;;;5.00;2.27;;;18.30;99.90;;;;;;5023375;28;20332;-76
2023/06/11 06:40:58;;;;;;;5.23;2.30;;;18.40;99.90;;;;;;5072424;28;20219;-75
2023/06/11 06:43:25;;;;;;;3.83;2.47;;;18.50;99.90;;;;;;5055826;28;20190;-75
2023/06/11 06:45:52;;;;;;;6.00;2.40;;;18.50;99.90;;;;;;5055922;28;20229;-75
2023/06/11 06:48:21;;;;;;;3.80;2.10;;;18.40;99.90;;;;;;5073588;28;20268;-76
2023/06/11 06:50:48;;;;;;;6.13;2.60;;;18.50;99.90;;;;;;5072644;28;20218;-74
2023/06/11 06:53:15;;;;;;;3.50;2.50;;;18.60;99.90;;;;;;5073597;28;20646;-75
2023/06/11 06:55:44;;;;;;;5.77;2.30;;;18.80;99.90;;;;;;5055536;28;20249;-76
2023/06/11 06:58:11;;;;;;;4.20;2.23;;;18.80;99.90;;;;;;5055547;28;20190;-75
2023/06/11 07:00:38;;;;;;;4.43;2.30;;;18.90;99.90;;;;;;5073564;28;20241;-74
2023/06/11 07:03:05;;;;;;;7.03;2.47;;;19.00;99.90;;;;;;5055595;28;20321;-75
2023/06/11 07:05:32;;;;;;;2.80;2.13;;;19.10;99.90;;;;;;5055141;28;20218;-75
2023/06/11 07:07:59;;;;;;;4.50;2.60;;;19.10;99.90;;;;;;5055207;28;20598;-75
2023/06/11 07:10:26;;;;;;;3.80;2.33;;;19.30;99.90;;;;;;5055217;28;20740;-74
2023/06/11 07:12:53;;;;;;;6.60;2.30;;;19.30;99.90;;;;;;5055254;28;20203;-75
2023/06/11 07:15:20;;;;;;;5.33;2.20;;;19.30;99.90;;;;;;5054775;28;20628;-76
2023/06/11 07:17:46;;;;;;;5.57;2.70;;;19.30;99.90;;;;;;5073065;28;20190;-75
2023/06/11 07:20:13;;;;;;;5.27;2.30;;;19.30;99.90;;;;;;5055388;28;20746;-75
2023/06/11 07:22:41;;;;;;;4.37;2.47;;;19.40;99.90;;;;;;5055331;28;20253;-75
2023/06/11 07:25:08;;;;;;;4.03;1.93;;;19.50;99.90;;;;;;5054989;28;20214;-74
2023/06/11 07:27:35;;;;;;;5.70;2.30;;;19.50;99.90;;;;;;5037929;28;20681;-75
2023/06/11 07:30:03;;;;;;;6.80;2.73;;;19.40;99.90;;;;;;5055022;28;20268;-75
2023/06/11 07:32:30;;;;;;;5.03;2.27;;;19.50;99.90;;;;;;5054725;28;20293;-75
2023/06/11 07:34:57;;;;;;;3.63;2.07;;;19.50;99.90;;;;;;5054740;28;20225;-75
2023/06/11 07:37:24;;;;;;;4.53;2.40;;;19.70;99.90;;;;;;5073127;28;20276;-75
2023/06/11 07:39:50;;;;;;;3.33;2.17;;;19.90;99.90;;;;;;5055043;28;20252;-76
2023/06/11 07:42:19;;;;;;;4.03;2.20;;;19.90;99.90;;;;;;5054555;28;20244;-74
2023/06/11 07:44:46;;;;;;;5.03;2.23;;;19.90;99.90;;;;;;5054923;28;20225;-76
2023/06/11 07:47:14;;;;;;;4.90;2.30;;;19.80;99.90;;;;;;5038081;28;20292;-75
2023/06/11 07:49:41;;;;;;;4.93;2.33;;;19.80;99.90;;;;;;5072648;28;20280;-76
2023/06/11 07:52:09;;;;;;;3.53;2.30;;;19.80;99.90;;;;;;5072762;28;20657;-75
2023/06/11 07:54:36;;;;;;;3.73;2.27;;;19.90;99.90;;;;;;5072361;28;20293;-75
2023/06/11 07:57:03;;;;;;;4.10;2.27;;;20.00;99.90;;;;;;5054516;28;20210;-76
2023/06/11 07:59:30;;;;;;;4.00;2.10;;;20.00;99.90;;;;;;5070832;28;20685;-76
2023/06/11 08:01:57;;;;;;;3.20;2.23;;;20.10;99.90;;;;;;5054164;28;20213;-76
2023/06/11 08:04:25;;;;;;;2.93;2.23;;;20.20;99.90;;;;;;5037638;28;20190;-74
2023/06/11 08:06:53;;;;;;;3.77;2.30;;;20.40;99.90;;;;;;5054733;28;20499;-74
2023/06/11 08:09:20;;;;;;;3.63;2.43;;;20.30;98.80;;;;;;5054048;28;20547;-74
2023/06/11 08:11:48;;;;;;;5.67;2.10;;;20.40;99.60;;;;;;5021632;28;20198;-75
2023/06/11 08:14:18;;;;;;;3.43;2.40;;;20.50;99.90;;;;;;5037259;28;20225;-73
2023/06/11 08:16:45;;;;;;;3.93;2.20;;;20.60;98.90;;;;;;5071976;28;20179;-75
2023/06/11 08:19:13;;;;;;;3.43;2.10;;;20.50;98.20;;;;;;5053904;28;20275;-75
2023/06/11 08:21:41;;;;;;;5.70;2.23;;;20.50;98.50;;;;;;5054138;28;20675;-76
2023/06/11 08:24:08;;;;;;;6.40;2.30;;;20.80;97.50;;;;;;5053963;28;20602;-75
2023/06/11 08:26:35;;;;;;;6.75;2.80;;;21.60;97.10;;;;;;5053924;28;20213;-75
2023/06/11 08:29:02;;;;;;;3.40;2.25;;;22.50;94.70;;;;;;5054393;28;20289;-75
2023/06/11 08:31:29;;;;;;;3.70;2.45;;;23.00;94.40;;;;;;5053869;28;20267;-76
2023/06/11 08:33:57;;;;;;;4.90;2.50;;;23.20;92.30;;;;;;5072153;28;20265;-76
2023/06/11 08:36:25;;;;;;;3.28;2.20;;;23.40;92.10;;;;;;5054152;28;20632;-76
2023/06/11 08:38:52;;;;;;;4.70;2.50;;;23.80;90.30;;;;;;5071973;28;20302;-77
2023/06/11 08:41:20;;;;;;;6.43;2.60;;;24.30;90.80;;;;;;5072055;28;20233;-75
2023/06/11 08:43:47;;;;;;;3.95;2.33;;;24.50;87.10;;;;;;5071842;28;20208;-75
2023/06/11 08:46:15;;;;;;;5.93;2.60;;;24.40;85.10;;;;;;5053771;28;20214;-75
2023/06/11 08:48:43;;;;;;;2.92;2.40;;;24.70;88.50;;;;;;5054058;28;20794;-75
2023/06/11 08:51:12;;;;;;;4.45;2.40;;;25.00;83.40;;;;;;5070637;28;20259;-75
2023/06/11 08:53:40;;;;;;;4.97;2.55;;;25.10;81.60;;;;;;5072294;28;20186;-76
2023/06/11 08:56:07;;;;;;;4.72;2.45;;;25.40;81.20;;;;;;5037614;28;20218;-77
2023/06/11 08:58:35;;;;;;;6.53;2.88;;;25.50;78.30;;;;;;4977296;28;20196;-77
2023/06/11 09:01:09;;;;;;;7.55;2.70;;;25.60;81.00;;;;;;4993334;28;20782;-75
2023/06/11 09:03:36;;;;;;;5.70;2.40;;;25.80;77.50;;;;;;5009547;28;20223;-77
2023/06/11 09:06:06;;;;;;;6.60;2.70;;;25.70;76.00;;;;;;4977162;28;20220;-77
2023/06/11 09:08:33;;;;;;;4.03;2.30;;;25.70;76.00;;;;;;4977185;28;20270;-77
2023/06/11 09:11:00;;;;;;;4.03;2.30;;;25.50;74.40;;;;;;4993060;28;20762;-77
2023/06/11 09:13:28;;;;;;;5.25;2.58;;;25.50;74.50;;;;;;4997149;28;20331;-77
2023/06/11 09:15:57;;;;;;;7.05;2.63;;;25.60;72.80;;;;;;5007458;28;20586;-75
2023/06/11 09:18:27;;;;;;;3.35;2.30;;;26.00;72.70;;;;;;5057486;28;20259;-76
2023/06/11 09:20:57;;;;;;;3.60;2.30;;;25.90;71.10;;;;;;5057694;28;20210;-76
2023/06/11 09:23:27;;;;;;;4.13;2.30;;;25.40;71.60;;;;;;5075321;28;20212;-77
2023/06/11 09:26:01;;;;;;;3.55;2.38;;;25.40;70.90;;;;;;5057362;28;20233;-78
2023/06/11 09:28:36;;;;;;;4.38;2.28;;;25.70;71.60;;;;;;5057210;28;20212;-80
2023/06/11 09:31:04;;;;;;;5.43;2.47;;;26.10;71.30;;;;;;5056927;28;20748;-76
2023/06/11 09:33:32;;;;;;;3.08;2.25;;;26.10;70.40;;;;;;5057116;28;20248;-79
2023/06/11 09:35:59;;;;;;;5.68;2.40;;;26.00;68.80;;;;;;5074875;28;20568;-76
2023/06/11 09:38:27;;;;;;;4.05;2.40;;;26.20;69.60;;;;;;5075068;28;20221;-78
2023/06/11 09:40:56;;;;;;;4.32;2.35;;;26.30;68.80;;;;;;5057013;28;20622;-76
2023/06/11 09:43:24;;;;;;;2.85;2.30;;;26.00;66.60;;;;;;5057184;28;20228;-77
2023/06/11 09:45:53;;;;;;;5.45;2.60;;;25.90;67.00;;;;;;5075040;28;20302;-76
2023/06/11 09:48:24;;;;;;;3.88;2.80;;;25.80;67.50;;;;;;5056813;28;20304;-76
2023/06/11 09:50:53;;;;;;;4.53;2.53;;;26.00;67.20;;;;;;5074766;28;20670;-76
2023/06/11 09:53:21;;;;;;;3.70;2.60;;;26.40;66.30;;;;;;5056554;28;20267;-76
2023/06/11 09:55:50;;;;;;;6.03;2.50;;;26.50;66.40;;;;;;5073547;28;20238;-78
2023/06/11 09:58:33;;;;;;;5.32;2.50;;;26.60;64.80;;;;;;5042092;28;20198;-76
2023/06/11 10:01:02;;;;;;;2.85;2.40;;;27.00;67.50;;;;;;5056972;28;20229;-76
2023/06/11 10:03:33;;;;;;;6.20;2.72;;;27.30;66.40;;;;;;5057423;28;20301;-75
2023/06/11 10:06:10;;;;;;;2.92;2.30;;;27.30;63.90;;;;;;5056494;28;20218;-76
2023/06/11 10:08:39;;;;;;;4.22;2.42;;;27.40;63.30;;;;;;5056623;28;20649;-76
2023/06/11 10:11:08;;;;;;;3.47;2.30;;;27.30;61.60;;;;;;5074271;28;20645;-76
2023/06/11 10:13:35;;;;;;;4.63;2.50;;;26.80;60.10;;;;;;5056376;28;20194;-76
2023/06/11 10:16:04;;;;;;;4.30;2.55;;;26.80;60.30;;;;;;5056532;28;20341;-76
2023/06/11 10:18:31;;;;;;;3.85;2.35;;;27.20;60.80;;;;;;5074636;28;20190;-79
2023/06/11 10:21:00;;;;;;;6.60;2.58;;;27.70;60.70;;;;;;5056082;28;20245;-76
2023/06/11 10:23:36;;;;;;;4.80;2.70;;;27.80;58.60;;;;;;5073290;28;20218;-78
2023/06/11 10:26:04;;;;;;;4.35;2.50;;;27.80;58.90;;;;;;5056371;28;20206;-77
2023/06/11 10:28:49;;;;;;;3.53;2.40;;;28.10;59.70;;;;;;5056462;28;20285;-76
2023/06/11 10:31:26;;;;;;;7.00;2.90;;;28.10;59.50;;;;;;5074255;28;20222;-76
2023/06/11 10:34:03;;;;;;;4.65;3.15;;;28.70;58.80;;;;;;5074131;28;20189;-77
2023/06/11 10:36:36;;;;;;;4.15;2.90;;;28.50;58.90;;;;;;5056079;28;20260;-76
2023/06/11 10:39:09;;;;;;;5.05;2.45;;;28.70;58.00;;;;;;5055943;28;20194;-76
2023/06/11 10:41:40;;;;;;;10.57;3.20;;;28.70;57.10;;;;;;5055940;28;20190;-77
2023/06/11 10:44:09;;;;;;;4.47;2.60;;;28.60;56.50;;;;;;5072159;28;20232;-76
2023/06/11 10:46:50;;;;;;;3.20;2.58;;;28.70;56.90;;;;;;5074165;28;20236;-78
2023/06/11 10:49:27;;;;;;;3.35;2.85;;;29.00;56.80;;;;;;5056204;28;20638;-76
2023/06/11 10:51:55;;;;;;;8.55;2.78;;;29.00;56.20;;;;;;5056197;28;20205;-78
2023/06/11 10:54:27;;;;;;;5.35;2.90;;;29.20;57.10;;;;;;5055717;28;20274;-77
2023/06/11 10:56:55;;;;;;;7.53;2.75;;;29.20;57.20;;;;;;5072180;28;20736;-80
2023/06/11 10:59:23;;;;;;;2.97;2.40;;;29.60;56.10;;;;;;5055601;28;20202;-75
2023/06/11 11:01:54;;;;;;;4.88;2.72;;;29.90;55.00;;;;;;5073585;28;20206;-75
2023/06/11 11:04:22;;;;;;;3.83;2.47;;;29.70;53.50;;;;;;5055427;28;20618;-77
2023/06/11 11:07:03;;;;;;;4.97;2.70;;;29.60;53.40;;;;;;5055930;28;20276;-76
2023/06/11 11:09:30;;;;;;;3.67;2.70;;;29.90;53.50;;;;;;5072418;28;20245;-76
2023/06/11 11:11:58;;;;;;;4.18;2.80;;;29.80;54.10;;;;;;5055682;28;20213;-75
2023/06/11 11:14:27;;;;;;;8.43;2.97;;;29.80;54.30;;;;;;5071735;28;20898;-77
2023/06/11 11:16:55;;;;;;;4.47;2.55;;;29.20;54.10;;;;;;5073476;28;20182;-76
2023/06/11 11:19:26;;;;;;;7.25;3.05;;;29.60;54.30;;;;;;5055218;28;20202;-77
2023/06/11 11:21:55;;;;;;;5.20;2.78;;;29.60;54.40;;;;;;5038648;28;20204;-76
2023/06/11 11:24:23;;;;;;;6.53;2.40;;;30.00;54.50;;;;;;5038632;28;20190;-77
2023/06/11 11:26:50;;;;;;;9.02;3.40;;;29.90;54.70;;;;;;5073014;28;20351;-76
2023/06/11 11:29:17;;;;;;;6.00;3.13;;;30.30;55.00;;;;;;5071539;28;20244;-75
2023/06/11 11:31:45;;;;;;;4.28;2.90;;;30.80;55.50;;;;;;5055027;28;20217;-76
2023/06/11 11:34:12;;;;;;;4.65;2.80;;;31.10;54.50;;;;;;5054675;28;20292;-75
2023/06/11 11:36:43;;;;;;;4.00;2.90;;;30.50;53.20;;;;;;5054648;28;20194;-76
2023/06/11 11:39:13;;;;;;;5.15;3.20;;;29.90;54.00;;;;;;5071554;28;20183;-77
2023/06/11 11:42:00;;;;;;;6.78;2.70;;;30.20;54.30;;;;;;5072962;28;20194;-77
2023/06/11 11:44:39;;;;;;;5.43;2.65;;;31.00;53.40;;;;;;5072694;28;20174;-76
2023/06/11 11:47:11;;;;;;;4.20;2.58;;;31.20;52.60;;;;;;5038115;28;20196;-78
2023/06/11 11:49:38;;;;;;;4.05;2.65;;;31.40;53.00;;;;;;5054668;28;20242;-76
2023/06/11 11:52:06;;;;;;;3.92;2.70;;;31.80;52.40;;;;;;5072554;28;20178;-76
2023/06/11 11:54:33;;;;;;;4.25;2.95;;;31.40;52.00;;;;;;5072273;28;20210;-75
2023/06/11 11:57:07;;;;;;;4.53;2.90;;;31.20;52.20;;;;;;5054474;28;20220;-75
2023/06/11 11:59:38;;;;;;;3.28;2.45;;;30.90;50.90;;;;;;5054906;28;20213;-78
2023/06/11 12:02:05;;;;;;;4.75;2.80;;;31.40;50.30;;;;;;5054452;28;20197;-76
2023/06/11 12:04:40;;;;;;;4.45;2.80;;;31.40;51.30;;;;;;5054085;28;20206;-76
2023/06/11 12:07:11;;;;;;;6.97;3.20;;;31.40;51.20;;;;;;5054348;28;20359;-75
2023/06/11 12:09:39;;;;;;;5.53;2.67;;;31.40;51.60;;;;;;5037464;28;20226;-75
2023/06/11 12:12:07;;;;;;;3.45;2.70;;;30.90;52.20;;;;;;5037435;28;20194;-76
2023/06/11 12:14:35;;;;;;;6.85;2.60;;;31.00;52.10;;;;;;5054010;28;20234;-77
2023/06/11 12:17:03;;;;;;;4.35;3.00;;;31.10;51.50;;;;;;5071085;28;20707;-76
2023/06/11 12:19:32;;;;;;;5.47;2.80;;;31.20;51.20;;;;;;5072161;28;20309;-76
2023/06/11 12:22:06;;;;;;;4.97;3.20;;;31.20;51.40;;;;;;5054003;28;20650;-76
2023/06/11 12:24:33;;;;;;;4.45;3.03;;;31.60;51.20;;;;;;5053765;28;20245;-76
2023/06/11 12:27:00;;;;;;;4.60;3.08;;;31.40;52.50;;;;;;5054398;28;20220;-76
2023/06/11 12:29:35;;;;;;;5.80;2.83;;;31.50;53.30;;;;;;5072244;28;20214;-78
2023/06/11 12:32:02;;;;;;;4.10;2.67;;;31.50;52.90;;;;;;5054249;28;20661;-76
2023/06/11 12:34:29;;;;;;;3.97;2.97;;;31.60;52.70;;;;;;5037218;28;20313;-78
2023/06/11 12:36:56;;;;;;;4.20;2.88;;;31.20;51.90;;;;;;5072247;28;20212;-77
2023/06/11 12:39:23;;;;;;;3.50;2.65;;;31.20;53.40;;;;;;5037256;28;20210;-77
2023/06/11 12:41:51;;;;;;;5.22;2.80;;;31.00;52.60;;;;;;5071962;28;20543;-77
2023/06/11 12:44:18;;;;;;;3.85;2.80;;;30.60;52.00;;;;;;5070553;28;20647;-77
2023/06/11 12:46:45;;;;;;;5.15;2.70;;;30.20;52.90;;;;;;5073462;28;20237;-78
2023/06/11 12:49:12;;;;;;;3.65;2.63;;;29.60;51.30;;;;;;5075792;28;20208;-77
2023/06/11 12:51:43;;;;;;;4.90;2.88;;;29.10;52.60;;;;;;5058156;28;20190;-77
2023/06/11 12:54:15;;;;;;;5.82;2.92;;;29.70;53.40;;;;;;5058937;28;20257;-77